createdAt,value
2022-09-03T00:02:17.733Z,59.48
2022-09-03T00:04:58.093Z,59.86
2022-09-03T00:07:47.250Z,60.33
2022-09-03T00:10:27.790Z,60.62
2022-09-03T00:13:00.201Z,60.55
2022-09-03T00:15:27.725Z,60.80
2022-09-03T00:18:11.650Z,61.29
2022-09-03T00:20:43.951Z,61.14
2022-09-03T00:23:18.572Z,61.39
2022-09-03T00:25:55.753Z,61.50
2022-09-03T00:28:52.704Z,61.87
2022-09-03T00:31:32.828Z,62.23
2022-09-03T00:34:08.666Z,62.44
2022-09-03T00:36:43.286Z,62.20
2022-09-03T00:39:16.202Z,62.73
2022-09-03T00:41:57.786Z,62.72
2022-09-03T00:44:39.812Z,63.08
2022-09-03T00:47:28.098Z,63.56
2022-09-03T00:50:07.425Z,63.41
2022-09-03T00:52:50.919Z,63.61
2022-09-03T00:55:45.304Z,63.65
2022-09-03T00:58:26.590Z,63.88
2022-09-03T01:00:53.034Z,64.16
2022-09-03T01:03:51.194Z,64.33
2022-09-03T01:06:23.458Z,64.46
2022-09-03T01:09:13.959Z,64.50
2022-09-03T01:11:49.899Z,64.92
2022-09-03T01:14:28.109Z,65.03
2022-09-03T01:17:19.225Z,65.20
2022-09-03T01:20:00.628Z,65.18
2022-09-03T01:22:51.629Z,65.41
2022-09-03T01:25:38.868Z,65.72
2022-09-03T01:28:44.389Z,65.60
2022-09-03T01:31:23.039Z,65.52
2022-09-03T01:34:11.394Z,65.89
2022-09-03T01:36:47.378Z,66.26
2022-09-03T01:39:22.847Z,65.93
2022-09-03T01:42:14.107Z,65.91
2022-09-03T01:45:07.346Z,65.82
2022-09-03T01:47:51.853Z,66.44
2022-09-03T01:50:36.455Z,66.30
2022-09-03T01:55:56.524Z,66.52
2022-09-03T01:58:31.320Z,66.44
2022-09-03T02:01:05.402Z,66.53
2022-09-03T02:03:41.407Z,66.43
2022-09-03T02:06:09.221Z,66.43
2022-09-03T02:08:35.819Z,66.13
2022-09-03T02:11:08.593Z,66.50
2022-09-03T02:13:37.720Z,66.25
2022-09-03T02:16:16.574Z,66.44
2022-09-03T02:18:48.234Z,66.62
2022-09-03T02:21:20.368Z,66.71
2022-09-03T02:23:48.394Z,66.62
2022-09-03T02:26:19.894Z,67.21
2022-09-03T02:28:46.918Z,67.02
2022-09-03T02:31:13.317Z,67.44
2022-09-03T02:33:43.354Z,67.30
2022-09-03T02:36:12.645Z,67.22
2022-09-03T02:38:42.001Z,67.17
2022-09-03T02:41:08.925Z,67.55
2022-09-03T02:43:50.022Z,67.55
2022-09-03T02:46:21.512Z,67.89
2022-09-03T02:48:48.463Z,67.80
2022-09-03T02:51:14.970Z,67.98
2022-09-03T02:53:42.682Z,68.12
2022-09-03T02:56:09.401Z,68.00
2022-09-03T02:58:35.783Z,67.96
2022-09-03T03:01:03.838Z,68.04
2022-09-03T03:03:30.378Z,68.44
2022-09-03T03:06:00.547Z,68.46
2022-09-03T03:08:28.759Z,69.03
2022-09-03T03:10:58.688Z,69.78
2022-09-03T03:13:26.248Z,69.70
2022-09-03T03:15:56.698Z,69.84
2022-09-03T03:18:23.148Z,70.10
2022-09-03T03:23:15.850Z,70.09
2022-09-03T03:25:42.265Z,70.02
2022-09-03T03:28:08.742Z,69.92
2022-09-03T03:30:39.751Z,70.01
2022-09-03T03:33:07.340Z,69.98
2022-09-03T03:35:33.815Z,70.17
2022-09-03T03:38:00.736Z,70.13
2022-09-03T03:40:27.128Z,70.59
2022-09-03T03:45:20.957Z,70.82
2022-09-03T03:47:47.370Z,70.98
2022-09-03T03:50:13.717Z,70.94
2022-09-03T03:52:40.146Z,70.91
2022-09-03T03:55:06.850Z,71.06
2022-09-03T03:57:33.245Z,71.50
2022-09-03T03:59:59.765Z,71.60
2022-09-03T04:02:26.515Z,71.79
2022-09-03T04:04:52.946Z,72.20
2022-09-03T04:07:19.336Z,72.11
2022-09-03T04:09:45.816Z,72.50
2022-09-03T04:12:12.207Z,72.79
2022-09-03T04:14:38.822Z,72.71
2022-09-03T04:17:05.239Z,72.73
2022-09-03T04:19:31.736Z,73.23
2022-09-03T04:21:58.145Z,72.90
2022-09-03T04:24:24.572Z,73.28
2022-09-03T04:26:50.972Z,73.21
2022-09-03T04:29:18.250Z,73.32
2022-09-03T04:32:04.626Z,72.92
2022-09-03T04:34:31.012Z,73.36
2022-09-03T04:36:58.975Z,73.36
2022-09-03T04:39:26.050Z,73.35
2022-09-03T04:41:52.621Z,73.11
2022-09-03T04:44:18.977Z,73.15
2022-09-03T04:46:47.707Z,73.45
2022-09-03T04:49:14.705Z,73.39
2022-09-03T04:51:41.205Z,73.86
2022-09-03T04:54:07.741Z,73.69
2022-09-03T04:56:35.224Z,74.02
2022-09-03T04:59:07.221Z,74.25
2022-09-03T05:01:35.261Z,74.48
2022-09-03T05:04:02.730Z,74.73
2022-09-03T05:06:31.409Z,74.96
2022-09-03T05:08:58.331Z,74.64
2022-09-03T05:11:26.227Z,74.66
2022-09-03T05:13:55.100Z,74.86
2022-09-03T05:16:23.450Z,74.99
2022-09-03T05:18:53.942Z,75.04
2022-09-03T05:21:20.601Z,75.13
2022-09-03T05:23:48.686Z,75.03
2022-09-03T05:26:18.015Z,74.72
2022-09-03T05:28:44.921Z,74.46
2022-09-03T05:31:14.331Z,74.65
2022-09-03T05:33:52.605Z,74.45
2022-09-03T05:36:22.846Z,74.11
2022-09-03T05:38:50.065Z,74.17
2022-09-03T05:41:19.046Z,73.94
2022-09-03T05:43:51.779Z,73.39
2022-09-03T05:46:18.505Z,73.78
2022-09-03T05:48:45.256Z,73.03
2022-09-03T05:51:17.795Z,72.56
2022-09-03T05:53:48.812Z,72.43
2022-09-03T05:56:20.578Z,71.95
2022-09-03T05:58:53.630Z,72.16
2022-09-03T06:01:25.572Z,71.58
2022-09-03T06:03:58.351Z,71.38
2022-09-03T06:06:25.939Z,71.28
2022-09-03T06:08:58.054Z,70.62
2022-09-03T06:11:27.916Z,70.46
2022-09-03T06:14:05.712Z,70.26
2022-09-03T06:16:34.281Z,70.14
2022-09-03T06:19:01.020Z,69.70
2022-09-03T06:21:28.409Z,69.39
2022-09-03T06:23:59.828Z,68.49
2022-09-03T06:26:28.414Z,68.55
2022-09-03T06:28:56.108Z,67.97
2022-09-03T06:33:49.548Z,68.03
2022-09-03T06:36:18.447Z,67.58
2022-09-03T06:38:46.051Z,67.96
2022-09-03T06:41:25.133Z,67.41
2022-09-03T06:44:12.263Z,66.22
2022-09-03T06:46:42.223Z,66.46
2022-09-03T06:51:37.470Z,66.99
2022-09-03T06:54:06.738Z,65.74
2022-09-03T06:56:39.498Z,65.03
2022-09-03T06:59:12.101Z,63.88
2022-09-03T07:01:43.618Z,63.79
2022-09-03T07:06:40.088Z,64.25
2022-09-03T07:11:35.768Z,63.71
2022-09-03T07:14:04.420Z,63.05
2022-09-03T07:16:34.114Z,62.48
2022-09-03T07:21:29.453Z,62.70
2022-09-03T07:23:56.912Z,61.99
2022-09-03T07:26:26.162Z,62.40
2022-09-03T07:31:25.811Z,61.33
2022-09-03T07:33:59.935Z,60.98
2022-09-03T07:36:29.168Z,60.53
2022-09-03T07:39:01.672Z,59.65
2022-09-03T07:41:29.012Z,59.83
2022-09-03T07:43:56.895Z,59.61
2022-09-03T07:46:25.429Z,59.01
2022-09-03T07:48:57.120Z,57.41
2022-09-03T07:51:26.500Z,57.95
2022-09-03T07:53:55.316Z,57.55
2022-09-03T07:56:21.920Z,58.06
2022-09-03T07:58:48.354Z,58.03
2022-09-03T08:01:19.695Z,57.94
2022-09-03T08:03:48.625Z,56.85
2022-09-03T08:06:16.600Z,57.02
2022-09-03T08:08:45.126Z,57.21
2022-09-03T08:11:17.312Z,56.78
2022-09-03T08:16:18.674Z,56.30
2022-09-03T08:18:47.387Z,56.44
2022-09-03T08:21:17.790Z,55.31
2022-09-03T08:26:12.703Z,55.08
2022-09-03T08:31:20.636Z,54.43
2022-09-03T08:36:22.288Z,54.45
2022-09-03T08:38:54.796Z,54.80
2022-09-03T08:41:37.264Z,54.28
2022-09-03T08:44:10.273Z,53.52
2022-09-03T08:46:54.225Z,53.68
2022-09-03T08:49:55.673Z,54.02
2022-09-03T08:52:26.059Z,53.60
2022-09-03T08:55:00.897Z,53.40
2022-09-03T08:59:56.407Z,53.79
2022-09-03T09:05:40.293Z,52.61
2022-09-03T09:08:34.094Z,52.42
2022-09-03T09:14:03.697Z,52.16
2022-09-03T09:16:40.356Z,51.86
2022-09-03T09:19:33.848Z,51.47
2022-09-03T09:24:39.303Z,51.93
2022-09-03T09:27:06.916Z,51.04
2022-09-03T09:29:37.085Z,50.74
2022-09-03T09:34:36.232Z,50.85
2022-09-03T09:39:32.153Z,50.46
2022-09-03T09:42:08.121Z,49.44
2022-09-03T09:44:36.049Z,49.70
2022-09-03T09:47:26.745Z,48.99
2022-09-03T09:49:56.289Z,49.32
2022-09-03T09:52:25.964Z,49.89
2022-09-03T09:54:54.817Z,48.88
2022-09-03T09:57:25.583Z,47.73
2022-09-03T10:02:47.002Z,48.79
2022-09-03T10:07:40.246Z,47.56
2022-09-03T10:10:16.582Z,47.90
2022-09-03T10:13:01.602Z,47.50
2022-09-03T10:20:42.064Z,47.99
2022-09-03T10:23:18.436Z,47.23
2022-09-03T10:28:31.387Z,47.16
2022-09-03T10:33:49.101Z,46.00
2022-09-03T10:36:50.877Z,44.29
2022-09-03T10:39:20.104Z,43.94
2022-09-03T10:44:46.319Z,43.72
2022-09-03T10:47:41.744Z,44.20
2022-09-03T10:50:17.339Z,43.90
2022-09-03T10:53:26.176Z,43.46
2022-09-03T10:56:05.381Z,43.33
2022-09-03T10:58:53.239Z,43.95
2022-09-03T11:01:34.889Z,43.92
2022-09-03T11:04:23.624Z,43.05
2022-09-03T11:06:58.178Z,42.50
2022-09-03T11:09:37.985Z,42.60
2022-09-03T11:12:10.604Z,42.55
2022-09-03T11:22:43.700Z,41.04
2022-09-03T11:25:13.646Z,42.14
2022-09-03T11:27:42.782Z,42.77
2022-09-03T11:32:56.086Z,43.01
2022-09-03T11:38:00.284Z,42.81
2022-09-03T11:40:35.894Z,42.57
2022-09-03T11:43:28.400Z,41.91
2022-09-03T11:46:27.816Z,42.77
2022-09-03T11:48:57.625Z,41.72
2022-09-03T11:51:29.961Z,41.86
2022-09-03T11:56:25.212Z,41.42
2022-09-03T11:59:10.483Z,41.45
2022-09-03T12:01:38.379Z,40.81
2022-09-03T12:04:07.908Z,41.52
2022-09-03T12:07:00.249Z,41.26
2022-09-03T12:09:38.708Z,41.75
2022-09-03T12:12:30.256Z,41.47
2022-09-03T12:15:15.049Z,40.52
2022-09-03T12:17:47.262Z,40.75
2022-09-03T12:25:13.538Z,40.64
2022-09-03T12:30:17.053Z,41.78
2022-09-03T12:32:43.761Z,41.14
2022-09-03T12:38:08.491Z,41.00
2022-09-03T12:40:35.600Z,41.26
2022-09-03T12:46:16.988Z,41.86
2022-09-03T12:54:22.104Z,42.18
2022-09-03T12:57:00.058Z,40.81
2022-09-03T12:59:30.120Z,41.54
2022-09-03T13:02:03.875Z,41.49
2022-09-03T13:04:35.244Z,41.48
2022-09-03T13:09:33.800Z,41.61
2022-09-03T13:14:28.189Z,41.53
2022-09-03T13:17:20.500Z,42.16
2022-09-03T13:19:58.268Z,41.94
2022-09-03T13:25:14.527Z,40.88
2022-09-03T13:28:17.759Z,41.61
2022-09-03T13:31:26.918Z,41.82
2022-09-03T13:36:56.279Z,41.91
2022-09-03T13:39:38.388Z,41.61
2022-09-03T13:44:50.137Z,41.36
2022-09-03T13:50:22.197Z,42.22
2022-09-03T13:55:25.812Z,43.42
2022-09-03T13:58:30.698Z,43.08
2022-09-03T14:03:48.984Z,42.94
2022-09-03T14:09:14.216Z,44.01
2022-09-03T14:12:19.455Z,45.03
2022-09-03T14:14:56.771Z,44.79
2022-09-03T14:17:37.799Z,45.22
2022-09-03T14:20:06.879Z,45.39
2022-09-03T14:22:48.210Z,45.17
2022-09-03T14:27:45.814Z,45.70
2022-09-03T14:30:38.197Z,46.21
2022-09-03T14:36:14.525Z,46.76
2022-09-03T14:41:37.464Z,47.05
2022-09-03T14:46:49.298Z,47.55
2022-09-03T14:49:26.776Z,47.65
2022-09-03T14:52:12.115Z,47.36
2022-09-03T14:55:00.827Z,47.28
2022-09-03T14:57:43.682Z,47.70
2022-09-03T15:00:43.395Z,46.90
2022-09-03T15:11:23.518Z,47.15
2022-09-03T15:13:54.431Z,47.11
2022-09-03T15:16:52.490Z,47.87
2022-09-03T15:22:58.067Z,47.78
2022-09-03T15:30:20.882Z,46.96
2022-09-03T15:33:03.068Z,46.96
2022-09-03T15:35:38.325Z,47.78
2022-09-03T15:38:20.601Z,48.77
2022-09-03T15:40:46.934Z,49.12
2022-09-03T15:43:27.330Z,49.25
2022-09-03T15:45:59.248Z,48.91
2022-09-03T15:48:45.955Z,49.52
2022-09-03T15:51:34.057Z,49.75
2022-09-03T15:54:12.534Z,49.05
2022-09-03T15:56:55.820Z,49.12
2022-09-03T15:59:51.441Z,49.13
2022-09-03T16:02:33.377Z,49.92
2022-09-03T16:07:38.413Z,49.62
2022-09-03T16:10:24.719Z,50.09
2022-09-03T16:13:08.833Z,50.08
2022-09-03T16:18:33.695Z,50.55
2022-09-03T16:21:21.362Z,50.27
2022-09-03T16:24:05.849Z,50.70
2022-09-03T16:26:37.265Z,50.50
2022-09-03T16:29:18.923Z,50.76
2022-09-03T16:37:26.761Z,50.59
2022-09-03T16:43:39.665Z,50.15
2022-09-03T16:54:06.159Z,49.75
2022-09-03T16:56:50.971Z,50.25
2022-09-03T16:59:17.394Z,50.30
2022-09-03T17:01:43.845Z,50.25
2022-09-03T17:04:22.423Z,50.45
2022-09-03T17:09:54.311Z,51.44
2022-09-03T17:12:41.742Z,51.35
2022-09-03T17:18:14.213Z,51.89
2022-09-03T17:23:26.109Z,52.15
2022-09-03T17:26:31.990Z,52.13
2022-09-03T17:31:51.584Z,52.93
2022-09-03T17:37:12.997Z,53.06
2022-09-03T17:39:55.332Z,55.30
2022-09-03T17:42:30.041Z,56.51
2022-09-03T17:45:11.753Z,59.02
2022-09-03T17:50:18.594Z,60.24
2022-09-03T17:52:49.595Z,60.82
2022-09-03T17:55:38.550Z,61.31
2022-09-03T17:58:14.516Z,61.54
2022-09-03T18:00:57.910Z,62.00
2022-09-03T18:06:06.048Z,62.04
2022-09-03T18:08:58.910Z,62.27
2022-09-03T18:11:34.228Z,62.05
2022-09-03T18:20:04.573Z,63.02
2022-09-03T18:23:12.089Z,63.80
2022-09-03T18:26:00.984Z,64.34
2022-09-03T18:28:56.293Z,64.89
2022-09-03T18:40:03.051Z,67.11
2022-09-03T18:43:36.900Z,68.48
2022-09-03T18:50:03.217Z,69.23
2022-09-03T18:56:00.702Z,70.52
2022-09-03T19:01:56.451Z,71.00
2022-09-03T19:08:00.038Z,71.66
2022-09-03T19:13:47.448Z,73.40
2022-09-03T19:16:47.510Z,73.45
2022-09-03T19:22:30.983Z,74.16
2022-09-03T19:25:30.864Z,74.67
2022-09-03T19:28:40.446Z,75.24
2022-09-03T19:31:40.682Z,75.60
2022-09-03T19:34:44.338Z,76.37
2022-09-03T19:37:35.254Z,76.64
2022-09-03T19:41:06.830Z,77.46
2022-09-03T19:43:57.966Z,78.32
2022-09-03T19:47:00.556Z,78.74
2022-09-03T19:50:04.081Z,78.52
2022-09-03T19:53:00.764Z,78.15
2022-09-03T19:55:50.669Z,77.93
2022-09-03T19:58:43.667Z,78.46
2022-09-03T20:01:30.769Z,78.17
2022-09-03T20:07:04.263Z,78.12
2022-09-03T20:09:59.502Z,78.86
2022-09-03T20:12:31.098Z,78.79
2022-09-03T20:14:57.481Z,79.70
2022-09-03T20:17:41.816Z,80.08
2022-09-03T20:20:36.009Z,80.77
2022-09-03T20:23:15.737Z,81.07
2022-09-03T20:25:54.239Z,81.46
2022-09-03T20:28:41.809Z,81.99
2022-09-03T20:31:44.344Z,81.99
2022-09-03T20:34:35.115Z,82.44
2022-09-03T20:37:04.416Z,83.67
2022-09-03T20:40:06.675Z,83.70
2022-09-03T20:43:03.226Z,84.44
2022-09-03T20:45:49.393Z,84.49
2022-09-03T20:51:12.962Z,84.71
2022-09-03T20:54:08.625Z,85.14
2022-09-03T20:56:59.009Z,85.53
2022-09-03T20:59:55.474Z,85.69
2022-09-03T21:04:52.231Z,86.56
2022-09-03T21:07:55.850Z,86.76
2022-09-03T21:13:32.618Z,87.20
2022-09-03T21:16:24.349Z,88.14
2022-09-03T21:19:11.752Z,88.37
2022-09-03T21:21:40.751Z,88.90
2022-09-03T21:24:22.892Z,89.22
2022-09-03T21:29:41.511Z,89.84
2022-09-03T21:32:23.404Z,90.08
2022-09-03T21:37:24.916Z,90.64
2022-09-03T21:39:55.757Z,91.04
2022-09-03T21:42:37.720Z,91.29
2022-09-03T21:45:11.717Z,91.70
2022-09-03T21:47:44.817Z,92.06
2022-09-03T21:50:19.502Z,92.70
2022-09-03T21:52:59.188Z,93.38
2022-09-03T21:55:37.561Z,93.41
2022-09-03T21:58:24.730Z,93.99
2022-09-03T22:00:56.987Z,94.28
2022-09-03T22:06:01.396Z,94.90
2022-09-03T22:08:32.653Z,94.81
2022-09-03T22:11:05.789Z,94.68
2022-09-03T22:13:39.312Z,95.00
2022-09-03T22:18:50.306Z,95.66
2022-09-03T22:21:24.692Z,95.83
2022-09-03T22:24:10.191Z,95.96
2022-09-03T22:26:49.074Z,95.58
2022-09-03T22:29:25.429Z,95.55
2022-09-03T22:32:20.771Z,95.84
2022-09-03T22:35:25.547Z,95.94
2022-09-03T22:38:10.559Z,95.96
2022-09-03T22:40:52.574Z,95.92
2022-09-03T22:43:54.471Z,95.99
2022-09-03T22:49:06.283Z,95.75
2022-09-03T22:51:46.380Z,96.22
2022-09-03T22:54:41.874Z,96.36
2022-09-03T22:57:10.568Z,96.08
2022-09-03T23:00:01.898Z,96.44
2022-09-03T23:02:31.454Z,97.04
2022-09-03T23:05:08.481Z,97.49
2022-09-03T23:08:06.153Z,97.82
2022-09-03T23:10:43.871Z,98.18
2022-09-03T23:13:29.910Z,98.25
2022-09-03T23:16:19.998Z,98.42
2022-09-03T23:18:49.258Z,98.56
2022-09-03T23:21:24.432Z,99.12
2022-09-03T23:23:57.782Z,99.61
2022-09-03T23:26:42.566Z,100.00
2022-09-03T23:29:37.204Z,100.00
2022-09-03T23:32:06.345Z,100.00
2022-09-03T23:34:32.781Z,100.00
2022-09-03T23:37:33.056Z,100.00
2022-09-03T23:40:15.874Z,100.00
2022-09-03T23:42:48.157Z,100.00
2022-09-03T23:45:36.387Z,100.00
2022-09-03T23:48:44.319Z,100.00
2022-09-03T23:51:29.200Z,100.00
2022-09-03T23:54:13.616Z,100.00
2022-09-03T23:57:11.079Z,100.00
2022-09-03T23:59:52.871Z,100.00
